Terminal Aerodrome Forecast
Issued by NWS Shreveport, LA

Home | Current Version | Previous Version | Text Only | Print | Product List | Glossary On
Versions: 1 2 3 4 5 6 7 8 9 10 11 12 13 14 15 16 17 18 19 20 21 22 23
133
FTUS44 KSHV 191138
TAFSHV
TAF
KSHV 191138Z 1912/2012 VRB03KT 3SM BR OVC003
      TEMPO 1912/1915 1SM BR OVC002
     FM191500 VRB03KT 4SM -RA BR OVC003
     FM191900 20007KT P6SM OVC008
     FM192100 20007KT P6SM BKN015
     FM200200 19006KT P6SM OVC008=

USA.gov is the U.S. government's official web portal to all federal, state and local government web resources and services.